sensor_id;sensor_type;location;lat;lon;timestamp;temperature;humidity
26326;DHT22;14032;52.510;7.342;2022-09-17T00:01:19;10.90;99.90
26326;DHT22;14032;52.510;7.342;2022-09-17T00:03:53;10.90;99.90
26326;DHT22;14032;52.510;7.342;2022-09-17T00:06:40;10.90;99.90
26326;DHT22;14032;52.510;7.342;2022-09-17T00:09:42;10.90;99.90
26326;DHT22;14032;52.510;7.342;2022-09-17T00:12:41;10.90;99.90
26326;DHT22;14032;52.510;7.342;2022-09-17T00:15:51;10.90;99.90
26326;DHT22;14032;52.510;7.342;2022-09-17T00:18:38;10.90;99.90
26326;DHT22;14032;52.510;7.342;2022-09-17T00:21:17;10.90;99.90
26326;DHT22;14032;52.510;7.342;2022-09-17T00:24:10;10.90;99.90
26326;DHT22;14032;52.510;7.342;2022-09-17T00:26:52;10.90;99.90
26326;DHT22;14032;52.510;7.342;2022-09-17T00:30:01;10.90;99.90
26326;DHT22;14032;52.510;7.342;2022-09-17T00:32:57;10.90;99.90
26326;DHT22;14032;52.510;7.342;2022-09-17T00:36:00;10.80;99.90
26326;DHT22;14032;52.510;7.342;2022-09-17T00:38:48;10.80;99.90
26326;DHT22;14032;52.510;7.342;2022-09-17T00:41:37;10.80;99.90
26326;DHT22;14032;52.510;7.342;2022-09-17T00:44:53;10.70;99.90
26326;DHT22;14032;52.510;7.342;2022-09-17T00:47:34;10.70;99.90
26326;DHT22;14032;52.510;7.342;2022-09-17T00:50:35;10.70;99.90
26326;DHT22;14032;52.510;7.342;2022-09-17T00:53:18;10.70;99.90
26326;DHT22;14032;52.510;7.342;2022-09-17T00:56:27;10.70;99.90
26326;DHT22;14032;52.510;7.342;2022-09-17T00:59:35;10.60;99.90
26326;DHT22;14032;52.510;7.342;2022-09-17T01:02:16;10.50;99.90
26326;DHT22;14032;52.510;7.342;2022-09-17T01:05:03;10.50;99.90
26326;DHT22;14032;52.510;7.342;2022-09-17T01:17:16;10.40;99.90
26326;DHT22;14032;52.510;7.342;2022-09-17T01:38:41;10.10;99.90
26326;DHT22;14032;52.510;7.342;2022-09-17T01:44:27;10.00;99.90
26326;DHT22;14032;52.510;7.342;2022-09-17T01:49:32;9.90;99.90
26326;DHT22;14032;52.510;7.342;2022-09-17T01:52:01;9.80;99.90
26326;DHT22;14032;52.510;7.342;2022-09-17T01:54:31;9.80;99.90
26326;DHT22;14032;52.510;7.342;2022-09-17T01:57:16;9.80;99.90
26326;DHT22;14032;52.510;7.342;2022-09-17T01:59:58;9.80;99.90
26326;DHT22;14032;52.510;7.342;2022-09-17T02:02:34;9.70;99.90
26326;DHT22;14032;52.510;7.342;2022-09-17T02:05:28;9.70;99.90
26326;DHT22;14032;52.510;7.342;2022-09-17T02:08:04;9.70;99.90
26326;DHT22;14032;52.510;7.342;2022-09-17T02:10:36;9.70;99.90
26326;DHT22;14032;52.510;7.342;2022-09-17T02:13:12;9.60;99.90
26326;DHT22;14032;52.510;7.342;2022-09-17T02:15:46;9.60;99.90
26326;DHT22;14032;52.510;7.342;2022-09-17T02:18:32;9.60;99.90
26326;DHT22;14032;52.510;7.342;2022-09-17T02:24:23;9.50;99.90
26326;DHT22;14032;52.510;7.342;2022-09-17T02:27:01;9.50;99.90
26326;DHT22;14032;52.510;7.342;2022-09-17T02:29:37;9.50;99.90
26326;DHT22;14032;52.510;7.342;2022-09-17T02:32:12;9.50;99.90
26326;DHT22;14032;52.510;7.342;2022-09-17T02:34:53;9.40;99.90
26326;DHT22;14032;52.510;7.342;2022-09-17T02:37:43;9.50;99.90
26326;DHT22;14032;52.510;7.342;2022-09-17T02:40:48;9.40;99.90
26326;DHT22;14032;52.510;7.342;2022-09-17T02:48:51;9.40;99.90
26326;DHT22;14032;52.510;7.342;2022-09-17T02:51:53;9.40;99.90
26326;DHT22;14032;52.510;7.342;2022-09-17T02:55:07;9.40;99.90
26326;DHT22;14032;52.510;7.342;2022-09-17T02:57:38;9.40;99.90
26326;DHT22;14032;52.510;7.342;2022-09-17T03:00:19;9.40;99.90
26326;DHT22;14032;52.510;7.342;2022-09-17T03:03:00;9.40;99.90
26326;DHT22;14032;52.510;7.342;2022-09-17T03:06:07;9.40;99.90
26326;DHT22;14032;52.510;7.342;2022-09-17T03:08:40;9.40;99.90
26326;DHT22;14032;52.510;7.342;2022-09-17T03:11:10;9.40;99.90
26326;DHT22;14032;52.510;7.342;2022-09-17T03:13:37;9.40;99.90
26326;DHT22;14032;52.510;7.342;2022-09-17T03:16:10;9.50;99.90
26326;DHT22;14032;52.510;7.342;2022-09-17T03:18:36;9.40;99.90
26326;DHT22;14032;52.510;7.342;2022-09-17T03:21:01;9.40;99.90
26326;DHT22;14032;52.510;7.342;2022-09-17T03:23:27;9.40;99.90
26326;DHT22;14032;52.510;7.342;2022-09-17T03:25:53;9.40;99.90
26326;DHT22;14032;52.510;7.342;2022-09-17T03:28:20;9.40;99.90
26326;DHT22;14032;52.510;7.342;2022-09-17T03:30:47;9.40;99.90
26326;DHT22;14032;52.510;7.342;2022-09-17T03:33:13;9.40;99.90
26326;DHT22;14032;52.510;7.342;2022-09-17T03:35:43;9.40;99.90
26326;DHT22;14032;52.510;7.342;2022-09-17T03:38:09;9.40;99.90
26326;DHT22;14032;52.510;7.342;2022-09-17T03:40:35;9.30;99.90
26326;DHT22;14032;52.510;7.342;2022-09-17T03:43:00;9.30;99.90
26326;DHT22;14032;52.510;7.342;2022-09-17T03:45:26;9.30;99.90
26326;DHT22;14032;52.510;7.342;2022-09-17T03:47:51;9.30;99.90
26326;DHT22;14032;52.510;7.342;2022-09-17T03:50:17;9.30;99.90
26326;DHT22;14032;52.510;7.342;2022-09-17T03:52:43;9.30;99.90
26326;DHT22;14032;52.510;7.342;2022-09-17T03:55:09;9.30;99.90
26326;DHT22;14032;52.510;7.342;2022-09-17T03:57:45;9.30;99.90
26326;DHT22;14032;52.510;7.342;2022-09-17T04:00:15;9.30;99.90
26326;DHT22;14032;52.510;7.342;2022-09-17T04:02:47;9.30;99.90
26326;DHT22;14032;52.510;7.342;2022-09-17T04:05:13;9.30;99.90
26326;DHT22;14032;52.510;7.342;2022-09-17T04:07:39;9.30;99.90
26326;DHT22;14032;52.510;7.342;2022-09-17T04:10:06;9.30;99.90
26326;DHT22;14032;52.510;7.342;2022-09-17T04:12:32;9.30;99.90
26326;DHT22;14032;52.510;7.342;2022-09-17T04:14:57;9.30;99.90
26326;DHT22;14032;52.510;7.342;2022-09-17T04:17:23;9.20;99.90
26326;DHT22;14032;52.510;7.342;2022-09-17T04:19:49;9.20;99.90
26326;DHT22;14032;52.510;7.342;2022-09-17T04:22:15;9.30;99.90
26326;DHT22;14032;52.510;7.342;2022-09-17T04:24:40;9.20;99.90
26326;DHT22;14032;52.510;7.342;2022-09-17T04:27:06;9.20;99.90
26326;DHT22;14032;52.510;7.342;2022-09-17T04:29:31;9.20;99.90
26326;DHT22;14032;52.510;7.342;2022-09-17T04:31:57;9.20;99.90
26326;DHT22;14032;52.510;7.342;2022-09-17T04:34:23;9.20;99.90
26326;DHT22;14032;52.510;7.342;2022-09-17T04:36:48;9.20;99.90
26326;DHT22;14032;52.510;7.342;2022-09-17T04:39:14;9.20;99.90
26326;DHT22;14032;52.510;7.342;2022-09-17T04:41:40;9.20;99.90
26326;DHT22;14032;52.510;7.342;2022-09-17T04:44:05;9.20;99.90
26326;DHT22;14032;52.510;7.342;2022-09-17T04:46:31;9.20;99.90
26326;DHT22;14032;52.510;7.342;2022-09-17T04:48:57;9.20;99.90
26326;DHT22;14032;52.510;7.342;2022-09-17T04:51:24;9.20;99.90
26326;DHT22;14032;52.510;7.342;2022-09-17T04:53:50;9.20;99.90
26326;DHT22;14032;52.510;7.342;2022-09-17T04:56:16;9.20;99.90
26326;DHT22;14032;52.510;7.342;2022-09-17T04:58:42;9.10;99.90
26326;DHT22;14032;52.510;7.342;2022-09-17T05:01:08;9.10;99.90
26326;DHT22;14032;52.510;7.342;2022-09-17T05:03:33;9.10;99.90
26326;DHT22;14032;52.510;7.342;2022-09-17T05:05:59;9.10;99.90
26326;DHT22;14032;52.510;7.342;2022-09-17T05:08:25;9.10;99.90
26326;DHT22;14032;52.510;7.342;2022-09-17T05:10:50;9.20;99.90
26326;DHT22;14032;52.510;7.342;2022-09-17T05:13:16;9.20;99.90
26326;DHT22;14032;52.510;7.342;2022-09-17T05:15:42;9.20;99.90
26326;DHT22;14032;52.510;7.342;2022-09-17T05:18:08;9.30;99.90
26326;DHT22;14032;52.510;7.342;2022-09-17T05:20:33;9.30;99.90
26326;DHT22;14032;52.510;7.342;2022-09-17T05:22:59;9.30;99.90
26326;DHT22;14032;52.510;7.342;2022-09-17T05:25:24;9.30;99.90
26326;DHT22;14032;52.510;7.342;2022-09-17T05:27:51;9.30;99.90
26326;DHT22;14032;52.510;7.342;2022-09-17T05:30:17;9.30;99.90
26326;DHT22;14032;52.510;7.342;2022-09-17T05:32:43;9.30;99.90
26326;DHT22;14032;52.510;7.342;2022-09-17T05:35:09;9.30;99.90
26326;DHT22;14032;52.510;7.342;2022-09-17T05:37:35;9.20;99.90
26326;DHT22;14032;52.510;7.342;2022-09-17T05:40:02;9.20;99.90
26326;DHT22;14032;52.510;7.342;2022-09-17T05:42:29;9.20;99.90
26326;DHT22;14032;52.510;7.342;2022-09-17T05:44:55;9.30;99.90
26326;DHT22;14032;52.510;7.342;2022-09-17T05:47:20;9.30;99.90
26326;DHT22;14032;52.510;7.342;2022-09-17T05:49:46;9.30;99.90
26326;DHT22;14032;52.510;7.342;2022-09-17T05:52:11;9.30;99.90
26326;DHT22;14032;52.510;7.342;2022-09-17T05:54:37;9.30;99.90
26326;DHT22;14032;52.510;7.342;2022-09-17T05:57:03;9.30;99.90
26326;DHT22;14032;52.510;7.342;2022-09-17T05:59:28;9.30;99.90
26326;DHT22;14032;52.510;7.342;2022-09-17T06:01:54;9.30;99.90
26326;DHT22;14032;52.510;7.342;2022-09-17T06:04:19;9.30;99.90
26326;DHT22;14032;52.510;7.342;2022-09-17T06:06:45;9.40;99.90
26326;DHT22;14032;52.510;7.342;2022-09-17T06:09:11;9.40;99.90
26326;DHT22;14032;52.510;7.342;2022-09-17T06:11:36;9.40;99.90
26326;DHT22;14032;52.510;7.342;2022-09-17T06:14:03;9.40;99.90
26326;DHT22;14032;52.510;7.342;2022-09-17T06:16:28;9.50;99.90
26326;DHT22;14032;52.510;7.342;2022-09-17T06:18:54;9.50;99.90
26326;DHT22;14032;52.510;7.342;2022-09-17T06:21:20;9.50;99.90
26326;DHT22;14032;52.510;7.342;2022-09-17T06:23:47;9.50;99.90
26326;DHT22;14032;52.510;7.342;2022-09-17T06:26:13;9.50;99.90
26326;DHT22;14032;52.510;7.342;2022-09-17T06:28:38;9.60;99.90
26326;DHT22;14032;52.510;7.342;2022-09-17T06:31:06;9.60;99.90
26326;DHT22;14032;52.510;7.342;2022-09-17T06:33:32;9.60;99.90
26326;DHT22;14032;52.510;7.342;2022-09-17T06:35:59;9.70;99.90
26326;DHT22;14032;52.510;7.342;2022-09-17T06:38:27;9.70;99.90
26326;DHT22;14032;52.510;7.342;2022-09-17T06:40:53;9.80;99.90
26326;DHT22;14032;52.510;7.342;2022-09-17T06:43:19;9.80;99.90
26326;DHT22;14032;52.510;7.342;2022-09-17T06:45:52;9.80;99.90
26326;DHT22;14032;52.510;7.342;2022-09-17T06:48:18;9.90;99.90
26326;DHT22;14032;52.510;7.342;2022-09-17T06:50:43;9.90;99.90
26326;DHT22;14032;52.510;7.342;2022-09-17T06:53:09;9.90;99.90
26326;DHT22;14032;52.510;7.342;2022-09-17T06:55:35;10.00;99.90
26326;DHT22;14032;52.510;7.342;2022-09-17T06:58:00;10.10;99.90
26326;DHT22;14032;52.510;7.342;2022-09-17T07:00:26;10.10;99.90
26326;DHT22;14032;52.510;7.342;2022-09-17T07:02:58;10.20;99.90
26326;DHT22;14032;52.510;7.342;2022-09-17T07:05:26;10.40;99.90
26326;DHT22;14032;52.510;7.342;2022-09-17T07:07:52;10.50;99.90
26326;DHT22;14032;52.510;7.342;2022-09-17T07:10:19;10.60;99.90
26326;DHT22;14032;52.510;7.342;2022-09-17T07:12:44;10.60;99.90
26326;DHT22;14032;52.510;7.342;2022-09-17T07:15:11;10.60;99.90
26326;DHT22;14032;52.510;7.342;2022-09-17T07:17:37;10.60;99.90
26326;DHT22;14032;52.510;7.342;2022-09-17T07:20:05;10.60;99.90
26326;DHT22;14032;52.510;7.342;2022-09-17T07:22:54;10.60;99.90
26326;DHT22;14032;52.510;7.342;2022-09-17T07:25:22;10.60;99.90
26326;DHT22;14032;52.510;7.342;2022-09-17T07:27:52;10.60;99.90
26326;DHT22;14032;52.510;7.342;2022-09-17T07:30:19;10.60;99.90
26326;DHT22;14032;52.510;7.342;2022-09-17T07:32:45;10.60;99.90
26326;DHT22;14032;52.510;7.342;2022-09-17T07:35:11;10.60;99.90
26326;DHT22;14032;52.510;7.342;2022-09-17T07:37:37;10.70;99.90
26326;DHT22;14032;52.510;7.342;2022-09-17T07:40:03;10.70;99.90
26326;DHT22;14032;52.510;7.342;2022-09-17T07:42:32;10.80;99.90
26326;DHT22;14032;52.510;7.342;2022-09-17T07:44:58;10.80;99.90
26326;DHT22;14032;52.510;7.342;2022-09-17T07:47:24;10.80;99.90
26326;DHT22;14032;52.510;7.342;2022-09-17T07:49:49;10.80;99.90
26326;DHT22;14032;52.510;7.342;2022-09-17T07:52:15;10.70;99.90
26326;DHT22;14032;52.510;7.342;2022-09-17T07:54:40;10.70;99.90
26326;DHT22;14032;52.510;7.342;2022-09-17T07:57:06;10.70;99.90
26326;DHT22;14032;52.510;7.342;2022-09-17T07:59:32;10.80;99.90
26326;DHT22;14032;52.510;7.342;2022-09-17T08:01:58;10.80;99.90
26326;DHT22;14032;52.510;7.342;2022-09-17T08:04:23;10.80;99.90
26326;DHT22;14032;52.510;7.342;2022-09-17T08:06:49;10.90;99.90
26326;DHT22;14032;52.510;7.342;2022-09-17T08:09:15;10.90;99.90
26326;DHT22;14032;52.510;7.342;2022-09-17T08:11:42;11.00;99.90
26326;DHT22;14032;52.510;7.342;2022-09-17T08:14:13;11.00;99.90
26326;DHT22;14032;52.510;7.342;2022-09-17T08:16:39;11.10;99.90
26326;DHT22;14032;52.510;7.342;2022-09-17T08:19:05;11.10;99.90
26326;DHT22;14032;52.510;7.342;2022-09-17T08:21:31;11.10;99.90
26326;DHT22;14032;52.510;7.342;2022-09-17T08:23:57;11.20;99.90
26326;DHT22;14032;52.510;7.342;2022-09-17T08:26:23;11.20;99.90
26326;DHT22;14032;52.510;7.342;2022-09-17T08:28:51;11.30;99.90
26326;DHT22;14032;52.510;7.342;2022-09-17T08:31:20;11.40;99.90
26326;DHT22;14032;52.510;7.342;2022-09-17T08:33:46;11.40;99.90
26326;DHT22;14032;52.510;7.342;2022-09-17T08:36:14;11.50;99.90
26326;DHT22;14032;52.510;7.342;2022-09-17T08:38:40;11.50;99.90
26326;DHT22;14032;52.510;7.342;2022-09-17T08:43:43;11.70;99.90
26326;DHT22;14032;52.510;7.342;2022-09-17T08:46:11;11.80;99.90
26326;DHT22;14032;52.510;7.342;2022-09-17T08:48:44;11.80;99.90
26326;DHT22;14032;52.510;7.342;2022-09-17T08:51:35;12.00;99.90
26326;DHT22;14032;52.510;7.342;2022-09-17T08:56:44;12.10;99.90
26326;DHT22;14032;52.510;7.342;2022-09-17T08:59:47;12.20;99.90
26326;DHT22;14032;52.510;7.342;2022-09-17T09:02:23;12.30;99.90
26326;DHT22;14032;52.510;7.342;2022-09-17T09:05:00;12.50;99.90
26326;DHT22;14032;52.510;7.342;2022-09-17T09:07:29;12.60;99.90
26326;DHT22;14032;52.510;7.342;2022-09-17T09:10:29;12.60;99.90
26326;DHT22;14032;52.510;7.342;2022-09-17T09:12:49;12.70;99.90
26326;DHT22;14032;52.510;7.342;2022-09-17T09:15:35;12.80;99.90
26326;DHT22;14032;52.510;7.342;2022-09-17T09:18:18;12.70;99.90
26326;DHT22;14032;52.510;7.342;2022-09-17T09:20:52;12.70;99.90
26326;DHT22;14032;52.510;7.342;2022-09-17T09:23:33;12.60;99.90
26326;DHT22;14032;52.510;7.342;2022-09-17T09:34:38;12.90;99.90
26326;DHT22;14032;52.510;7.342;2022-09-17T09:37:23;12.90;99.90
26326;DHT22;14032;52.510;7.342;2022-09-17T09:39:50;12.80;99.90
26326;DHT22;14032;52.510;7.342;2022-09-17T09:42:32;12.60;99.90
26326;DHT22;14032;52.510;7.342;2022-09-17T09:45:13;12.50;99.90
26326;DHT22;14032;52.510;7.342;2022-09-17T09:48:01;12.30;99.90
26326;DHT22;14032;52.510;7.342;2022-09-17T09:51:19;12.20;99.90
26326;DHT22;14032;52.510;7.342;2022-09-17T09:53:48;12.10;99.90
26326;DHT22;14032;52.510;7.342;2022-09-17T09:56:54;12.20;99.90
26326;DHT22;14032;52.510;7.342;2022-09-17T09:59:20;12.30;99.90
26326;DHT22;14032;52.510;7.342;2022-09-17T10:01:46;12.40;99.90
26326;DHT22;14032;52.510;7.342;2022-09-17T10:04:18;12.50;99.90
26326;DHT22;14032;52.510;7.342;2022-09-17T10:06:45;12.60;99.90
26326;DHT22;14032;52.510;7.342;2022-09-17T10:12:35;12.80;99.90
26326;DHT22;14032;52.510;7.342;2022-09-17T10:15:25;12.90;99.90
26326;DHT22;14032;52.510;7.342;2022-09-17T10:18:17;13.00;99.90
26326;DHT22;14032;52.510;7.342;2022-09-17T10:20:56;13.00;99.90
26326;DHT22;14032;52.510;7.342;2022-09-17T10:23:24;12.90;99.90
26326;DHT22;14032;52.510;7.342;2022-09-17T10:25:51;12.90;99.90
26326;DHT22;14032;52.510;7.342;2022-09-17T10:28:53;12.80;99.90
26326;DHT22;14032;52.510;7.342;2022-09-17T10:31:20;12.80;99.90
26326;DHT22;14032;52.510;7.342;2022-09-17T10:34:02;12.90;99.90
26326;DHT22;14032;52.510;7.342;2022-09-17T10:36:43;13.00;99.90
26326;DHT22;14032;52.510;7.342;2022-09-17T10:41:58;13.20;99.90
26326;DHT22;14032;52.510;7.342;2022-09-17T10:44:27;13.30;99.90
26326;DHT22;14032;52.510;7.342;2022-09-17T10:46:53;13.20;99.90
26326;DHT22;14032;52.510;7.342;2022-09-17T10:49:42;13.10;99.90
26326;DHT22;14032;52.510;7.342;2022-09-17T10:52:39;13.00;99.90
26326;DHT22;14032;52.510;7.342;2022-09-17T10:55:35;12.70;99.90
26326;DHT22;14032;52.510;7.342;2022-09-17T11:14:50;12.10;99.90
26326;DHT22;14032;52.510;7.342;2022-09-17T11:25:29;11.80;99.90
26326;DHT22;14032;52.510;7.342;2022-09-17T11:31:08;12.00;99.90
26326;DHT22;14032;52.510;7.342;2022-09-17T11:34:03;12.20;99.90
26326;DHT22;14032;52.510;7.342;2022-09-17T11:36:46;12.40;99.90
26326;DHT22;14032;52.510;7.342;2022-09-17T11:39:18;12.50;99.90
26326;DHT22;14032;52.510;7.342;2022-09-17T11:41:47;12.60;99.90
26326;DHT22;14032;52.510;7.342;2022-09-17T11:46:50;12.80;99.90
26326;DHT22;14032;52.510;7.342;2022-09-17T11:49:33;12.90;99.90
26326;DHT22;14032;52.510;7.342;2022-09-17T11:54:52;13.20;99.90
26326;DHT22;14032;52.510;7.342;2022-09-17T11:57:24;13.20;99.90
26326;DHT22;14032;52.510;7.342;2022-09-17T11:59:55;13.20;99.90
26326;DHT22;14032;52.510;7.342;2022-09-17T12:05:26;12.80;99.90
26326;DHT22;14032;52.510;7.342;2022-09-17T12:08:16;12.50;99.90
26326;DHT22;14032;52.510;7.342;2022-09-17T12:11:06;12.30;99.90
26326;DHT22;14032;52.510;7.342;2022-09-17T12:13:47;12.10;99.90
26326;DHT22;14032;52.510;7.342;2022-09-17T12:16:25;12.00;99.90
26326;DHT22;14032;52.510;7.342;2022-09-17T12:19:02;11.80;99.90
26326;DHT22;14032;52.510;7.342;2022-09-17T12:38:51;10.90;99.90
26326;DHT22;14032;52.510;7.342;2022-09-17T12:48:07;10.90;99.90
26326;DHT22;14032;52.510;7.342;2022-09-17T12:58:25;11.00;99.90
26326;DHT22;14032;52.510;7.342;2022-09-17T13:01:05;11.00;99.90
26326;DHT22;14032;52.510;7.342;2022-09-17T13:03:41;11.10;99.90
26326;DHT22;14032;52.510;7.342;2022-09-17T13:09:15;11.30;99.90
26326;DHT22;14032;52.510;7.342;2022-09-17T13:12:07;11.30;99.90
26326;DHT22;14032;52.510;7.342;2022-09-17T13:17:38;11.40;99.90
26326;DHT22;14032;52.510;7.342;2022-09-17T13:20:16;11.50;99.90
26326;DHT22;14032;52.510;7.342;2022-09-17T13:22:48;11.60;99.90
26326;DHT22;14032;52.510;7.342;2022-09-17T13:25:16;11.70;99.90
26326;DHT22;14032;52.510;7.342;2022-09-17T13:27:43;11.80;99.90
26326;DHT22;14032;52.510;7.342;2022-09-17T13:30:14;11.90;99.90
26326;DHT22;14032;52.510;7.342;2022-09-17T13:37:32;12.20;99.90
26326;DHT22;14032;52.510;7.342;2022-09-17T13:40:00;12.20;99.90
26326;DHT22;14032;52.510;7.342;2022-09-17T13:42:29;12.30;99.90
26326;DHT22;14032;52.510;7.342;2022-09-17T13:45:06;12.40;99.90
26326;DHT22;14032;52.510;7.342;2022-09-17T13:47:36;12.40;99.90
26326;DHT22;14032;52.510;7.342;2022-09-17T13:50:11;12.40;99.90
26326;DHT22;14032;52.510;7.342;2022-09-17T13:52:49;12.50;99.90
26326;DHT22;14032;52.510;7.342;2022-09-17T13:55:35;12.70;99.90
26326;DHT22;14032;52.510;7.342;2022-09-17T13:58:20;12.80;99.90
26326;DHT22;14032;52.510;7.342;2022-09-17T14:01:08;13.00;99.90
26326;DHT22;14032;52.510;7.342;2022-09-17T14:31:58;13.70;99.90
26326;DHT22;14032;52.510;7.342;2022-09-17T14:34:25;13.50;99.90
26326;DHT22;14032;52.510;7.342;2022-09-17T14:36:52;13.20;99.90
26326;DHT22;14032;52.510;7.342;2022-09-17T14:39:26;13.00;99.90
26326;DHT22;14032;52.510;7.342;2022-09-17T14:41:53;12.80;99.90
26326;DHT22;14032;52.510;7.342;2022-09-17T14:44:23;12.70;99.90
26326;DHT22;14032;52.510;7.342;2022-09-17T14:49:25;12.50;99.90
26326;DHT22;14032;52.510;7.342;2022-09-17T14:51:52;12.50;99.90
26326;DHT22;14032;52.510;7.342;2022-09-17T14:54:23;12.50;99.90
26326;DHT22;14032;52.510;7.342;2022-09-17T15:04:53;12.80;99.90
26326;DHT22;14032;52.510;7.342;2022-09-17T15:07:21;12.80;99.90
26326;DHT22;14032;52.510;7.342;2022-09-17T15:09:46;12.80;99.90
26326;DHT22;14032;52.510;7.342;2022-09-17T15:12:16;12.80;99.90
26326;DHT22;14032;52.510;7.342;2022-09-17T15:14:45;12.80;99.90
26326;DHT22;14032;52.510;7.342;2022-09-17T15:17:16;12.80;99.90
26326;DHT22;14032;52.510;7.342;2022-09-17T15:19:47;12.90;99.90
26326;DHT22;14032;52.510;7.342;2022-09-17T15:22:27;12.90;99.90
26326;DHT22;14032;52.510;7.342;2022-09-17T15:25:08;13.00;99.90
26326;DHT22;14032;52.510;7.342;2022-09-17T15:27:45;13.00;99.90
26326;DHT22;14032;52.510;7.342;2022-09-17T15:30:19;13.00;99.90
26326;DHT22;14032;52.510;7.342;2022-09-17T15:32:55;13.10;99.90
26326;DHT22;14032;52.510;7.342;2022-09-17T15:35:28;13.10;99.90
26326;DHT22;14032;52.510;7.342;2022-09-17T15:38:00;13.20;99.90
26326;DHT22;14032;52.510;7.342;2022-09-17T15:40:39;13.20;99.90
26326;DHT22;14032;52.510;7.342;2022-09-17T15:43:31;13.20;99.90
26326;DHT22;14032;52.510;7.342;2022-09-17T15:48:46;13.00;99.90
26326;DHT22;14032;52.510;7.342;2022-09-17T15:51:26;13.00;99.90
26326;DHT22;14032;52.510;7.342;2022-09-17T15:53:55;12.90;99.90
26326;DHT22;14032;52.510;7.342;2022-09-17T15:56:24;12.80;99.90
26326;DHT22;14032;52.510;7.342;2022-09-17T15:58:53;12.70;99.90
26326;DHT22;14032;52.510;7.342;2022-09-17T16:04:15;12.60;99.90
26326;DHT22;14032;52.510;7.342;2022-09-17T16:09:46;12.50;99.90
26326;DHT22;14032;52.510;7.342;2022-09-17T16:12:18;12.40;99.90
26326;DHT22;14032;52.510;7.342;2022-09-17T16:14:46;12.40;99.90
26326;DHT22;14032;52.510;7.342;2022-09-17T16:17:26;12.40;99.90
26326;DHT22;14032;52.510;7.342;2022-09-17T16:19:56;12.40;99.90
26326;DHT22;14032;52.510;7.342;2022-09-17T16:22:22;12.40;99.90
26326;DHT22;14032;52.510;7.342;2022-09-17T16:24:48;12.40;99.90
26326;DHT22;14032;52.510;7.342;2022-09-17T16:27:20;12.30;99.90
26326;DHT22;14032;52.510;7.342;2022-09-17T16:29:47;12.30;99.90
26326;DHT22;14032;52.510;7.342;2022-09-17T16:32:13;12.30;99.90
26326;DHT22;14032;52.510;7.342;2022-09-17T16:34:39;12.30;99.90
26326;DHT22;14032;52.510;7.342;2022-09-17T16:37:04;12.20;99.90
26326;DHT22;14032;52.510;7.342;2022-09-17T16:39:30;12.20;99.90
26326;DHT22;14032;52.510;7.342;2022-09-17T16:41:56;12.10;99.90
26326;DHT22;14032;52.510;7.342;2022-09-17T16:44:21;12.10;99.90
26326;DHT22;14032;52.510;7.342;2022-09-17T16:46:47;12.00;99.90
26326;DHT22;14032;52.510;7.342;2022-09-17T16:49:15;12.10;99.90
26326;DHT22;14032;52.510;7.342;2022-09-17T16:51:41;12.10;99.90
26326;DHT22;14032;52.510;7.342;2022-09-17T16:54:07;12.10;99.90
26326;DHT22;14032;52.510;7.342;2022-09-17T16:56:32;12.20;99.90
26326;DHT22;14032;52.510;7.342;2022-09-17T16:58:58;12.20;99.90
26326;DHT22;14032;52.510;7.342;2022-09-17T17:01:24;12.10;99.90
26326;DHT22;14032;52.510;7.342;2022-09-17T17:03:50;12.10;99.90
26326;DHT22;14032;52.510;7.342;2022-09-17T17:06:19;12.00;99.90
26326;DHT22;14032;52.510;7.342;2022-09-17T17:08:45;12.00;99.90
26326;DHT22;14032;52.510;7.342;2022-09-17T17:11:11;11.80;99.90
26326;DHT22;14032;52.510;7.342;2022-09-17T17:13:37;11.80;99.90
26326;DHT22;14032;52.510;7.342;2022-09-17T17:16:07;11.70;99.90
26326;DHT22;14032;52.510;7.342;2022-09-17T17:18:32;11.60;99.90
26326;DHT22;14032;52.510;7.342;2022-09-17T17:21:08;11.60;99.90
26326;DHT22;14032;52.510;7.342;2022-09-17T17:23:35;11.50;99.90
26326;DHT22;14032;52.510;7.342;2022-09-17T17:26:01;11.50;99.90
26326;DHT22;14032;52.510;7.342;2022-09-17T17:28:33;11.50;99.90
26326;DHT22;14032;52.510;7.342;2022-09-17T17:30:59;11.50;99.90
26326;DHT22;14032;52.510;7.342;2022-09-17T17:33:25;11.50;99.90
26326;DHT22;14032;52.510;7.342;2022-09-17T17:35:50;11.40;99.90
26326;DHT22;14032;52.510;7.342;2022-09-17T17:38:17;11.40;99.90
26326;DHT22;14032;52.510;7.342;2022-09-17T17:40:43;11.30;99.90
26326;DHT22;14032;52.510;7.342;2022-09-17T17:43:10;11.30;99.90
26326;DHT22;14032;52.510;7.342;2022-09-17T17:45:36;11.30;99.90
26326;DHT22;14032;52.510;7.342;2022-09-17T17:48:02;11.30;99.90
26326;DHT22;14032;52.510;7.342;2022-09-17T17:50:28;11.30;99.90
26326;DHT22;14032;52.510;7.342;2022-09-17T17:52:54;11.30;99.90
26326;DHT22;14032;52.510;7.342;2022-09-17T17:55:19;11.30;99.90
26326;DHT22;14032;52.510;7.342;2022-09-17T17:57:45;11.30;99.90
26326;DHT22;14032;52.510;7.342;2022-09-17T18:00:11;11.30;99.90
26326;DHT22;14032;52.510;7.342;2022-09-17T18:02:38;11.30;99.90
26326;DHT22;14032;52.510;7.342;2022-09-17T18:05:04;11.30;99.90
26326;DHT22;14032;52.510;7.342;2022-09-17T18:07:29;11.30;99.90
26326;DHT22;14032;52.510;7.342;2022-09-17T18:09:55;11.30;99.90
26326;DHT22;14032;52.510;7.342;2022-09-17T18:12:21;11.40;99.90
26326;DHT22;14032;52.510;7.342;2022-09-17T18:14:46;11.30;99.90
26326;DHT22;14032;52.510;7.342;2022-09-17T18:17:12;11.40;99.90
26326;DHT22;14032;52.510;7.342;2022-09-17T18:19:37;11.40;99.90
26326;DHT22;14032;52.510;7.342;2022-09-17T18:22:03;11.30;99.90
26326;DHT22;14032;52.510;7.342;2022-09-17T18:24:28;11.40;99.90
26326;DHT22;14032;52.510;7.342;2022-09-17T18:26:54;11.40;99.90
26326;DHT22;14032;52.510;7.342;2022-09-17T18:29:20;11.30;99.90
26326;DHT22;14032;52.510;7.342;2022-09-17T18:31:45;11.30;99.90
26326;DHT22;14032;52.510;7.342;2022-09-17T18:34:13;11.30;99.90
26326;DHT22;14032;52.510;7.342;2022-09-17T18:36:39;11.20;99.90
26326;DHT22;14032;52.510;7.342;2022-09-17T18:39:07;11.10;99.90
26326;DHT22;14032;52.510;7.342;2022-09-17T18:41:36;11.10;99.90
26326;DHT22;14032;52.510;7.342;2022-09-17T18:44:04;11.00;99.90
26326;DHT22;14032;52.510;7.342;2022-09-17T18:46:29;10.90;99.90
26326;DHT22;14032;52.510;7.342;2022-09-17T18:48:57;10.90;99.90
26326;DHT22;14032;52.510;7.342;2022-09-17T18:51:24;10.80;99.90
26326;DHT22;14032;52.510;7.342;2022-09-17T18:53:50;10.90;99.90
26326;DHT22;14032;52.510;7.342;2022-09-17T18:56:21;10.90;99.90
26326;DHT22;14032;52.510;7.342;2022-09-17T18:58:51;10.90;99.90
26326;DHT22;14032;52.510;7.342;2022-09-17T19:01:19;10.90;99.90
26326;DHT22;14032;52.510;7.342;2022-09-17T19:03:45;11.00;99.90
26326;DHT22;14032;52.510;7.342;2022-09-17T19:06:12;11.00;99.90
26326;DHT22;14032;52.510;7.342;2022-09-17T19:08:39;11.00;99.90
26326;DHT22;14032;52.510;7.342;2022-09-17T19:11:05;11.00;99.90
26326;DHT22;14032;52.510;7.342;2022-09-17T19:13:33;11.00;99.90
26326;DHT22;14032;52.510;7.342;2022-09-17T19:15:59;11.00;99.90